Time;durP1;ratioP1;P1;durP2;ratioP2;P2;SDS_P1;SDS_P2;PMS_P1;PMS_P2;Temp;Humidity;BMP_temperature;BMP_pressure;BME280_temperature;BME280_humidity;BME280_pressure;Samples;Min_cycle;Max_cycle;Signal;HPM_P1;HPM_P2
2022/09/25 00:00:53;;;;;;;2.75;1.92;;;;;;;-143.85;100.00;70650.75;5092376;28;20020;-80
2022/09/25 00:03:20;;;;;;;2.72;1.65;;;;;;;-143.85;100.00;70650.75;5105166;28;20016;-77
2022/09/25 00:05:47;;;;;;;2.30;1.75;;;;;;;-143.85;100.00;70650.75;5112004;28;20015;-78
2022/09/25 00:08:14;;;;;;;3.08;1.75;;;;;;;-143.85;100.00;70650.75;5097046;28;20069;-77
2022/09/25 00:10:41;;;;;;;2.58;1.90;;;;;;;-143.85;100.00;70650.75;5110140;28;20015;-78
2022/09/25 00:13:07;;;;;;;1.95;1.52;;;;;;;-143.85;100.00;70650.75;5105502;28;20016;-77
2022/09/25 00:15:33;;;;;;;3.38;1.83;;;;;;;-143.85;100.00;70650.75;5111719;28;20039;-78
2022/09/25 00:17:58;;;;;;;6.70;2.67;;;;;;;-143.85;100.00;70650.75;5098572;28;20141;-77
2022/09/25 00:20:24;;;;;;;2.80;1.83;;;;;;;-143.85;100.00;70650.75;5111197;28;20028;-78
2022/09/25 00:22:49;;;;;;;2.45;1.48;;;;;;;-143.85;100.00;70650.75;5100899;28;20024;-77
2022/09/25 00:25:17;;;;;;;8.10;1.80;;;;;;;-143.85;100.00;70650.75;5107007;28;20036;-77
2022/09/25 00:27:44;;;;;;;2.17;1.85;;;;;;;-143.85;100.00;70650.75;5113376;28;20034;-77
2022/09/25 00:30:11;;;;;;;1.83;1.60;;;;;;;-143.85;100.00;70650.75;5094349;28;20020;-78
2022/09/25 00:32:37;;;;;;;1.97;1.23;;;;;;;-143.85;100.00;70650.75;5104803;28;20024;-77
2022/09/25 00:35:03;;;;;;;5.40;1.85;;;;;;;-143.85;100.00;70650.75;5094211;28;20110;-78
2022/09/25 00:37:29;;;;;;;3.30;1.20;;;;;;;-143.85;100.00;70650.75;5109899;28;20016;-77
2022/09/25 00:39:55;;;;;;;2.55;1.55;;;;;;;-143.85;100.00;70650.75;5091404;28;20092;-79
2022/09/25 00:42:21;;;;;;;3.60;1.88;;;;;;;-143.85;100.00;70650.75;5091746;28;20039;-79
2022/09/25 00:44:56;;;;;;;2.88;1.65;;;;;;;-143.85;100.00;70650.75;5100969;28;20446;-80
2022/09/25 00:47:45;;;;;;;4.20;2.20;;;;;;;-143.85;100.00;70650.75;5093331;28;20073;-77
2022/09/25 00:50:45;;;;;;;4.00;2.45;;;;;;;-143.85;100.00;70650.75;5105835;28;20016;-78
2022/09/25 00:53:20;;;;;;;2.35;1.92;;;;;;;-143.85;100.00;70650.75;5091509;28;20077;-80
2022/09/25 00:55:47;;;;;;;2.00;1.90;;;;;;;-143.85;100.00;70650.75;5108146;28;20019;-78
2022/09/25 00:58:15;;;;;;;2.83;1.48;;;;;;;-143.85;100.00;70650.75;5092468;28;20034;-80
2022/09/25 01:00:41;;;;;;;1.33;1.20;;;;;;;-143.85;100.00;70650.75;5099262;28;20018;-81
2022/09/25 01:03:07;;;;;;;2.25;1.65;;;;;;;-143.85;100.00;70650.75;5110924;28;20016;-79
2022/09/25 01:05:36;;;;;;;4.38;1.50;;;;;;;-143.85;100.00;70650.75;5099447;28;20020;-79
2022/09/25 01:08:04;;;;;;;2.10;1.65;;;;;;;-143.85;100.00;70650.75;5100698;28;20031;-79
2022/09/25 01:10:31;;;;;;;1.67;1.55;;;;;;;-143.85;100.00;70650.75;5103759;28;20087;-77
2022/09/25 01:12:59;;;;;;;5.65;1.83;;;;;;;-143.85;100.00;70650.75;5109115;28;20464;-81
2022/09/25 01:15:35;;;;;;;;;;;;;;;-143.85;100.00;70650.75;5102823;28;20129;-78
2022/09/25 01:18:30;;;;;;;1.38;1.25;;;;;;;-143.85;100.00;70650.75;5093292;28;19911;-80
2022/09/25 01:21:12;;;;;;;3.28;2.20;;;;;;;-143.85;100.00;70650.75;5107606;28;20042;-80
2022/09/25 01:23:50;;;;;;;2.33;2.00;;;;;;;-143.85;100.00;70650.75;5111022;28;20064;-75
2022/09/25 01:26:52;;;;;;;4.53;1.77;;;;;;;-143.85;100.00;70650.75;5097354;28;20039;-78
2022/09/25 01:29:43;;;;;;;5.40;2.05;;;;;;;-143.85;100.00;70650.75;5101715;28;20483;-81
2022/09/25 01:32:37;;;;;;;4.30;1.63;;;;;;;-143.85;100.00;70650.75;5096807;28;20440;-79
2022/09/25 01:35:36;;;;;;;3.25;2.15;;;;;;;-143.85;100.00;70650.75;5101467;28;20441;-77
2022/09/25 01:38:14;;;;;;;4.82;1.58;;;;;;;-143.85;100.00;70650.75;5106349;28;20023;-77
2022/09/25 01:41:06;;;;;;;2.53;1.98;;;;;;;-143.85;100.00;70650.75;5110535;28;20023;-77
2022/09/25 01:43:45;;;;;;;2.45;1.40;;;;;;;-143.85;100.00;70650.75;5082088;28;20490;-77
2022/09/25 01:46:13;;;;;;;2.50;1.75;;;;;;;-143.85;100.00;70650.75;5093239;28;20111;-78
2022/09/25 01:48:43;;;;;;;5.07;2.42;;;;;;;-143.85;100.00;70650.75;5095278;28;20398;-80
2022/09/25 01:51:30;;;;;;;3.67;2.03;;;;;;;-143.85;100.00;70650.75;5100053;28;20016;-79
2022/09/25 01:54:06;;;;;;;1.58;1.30;;;;;;;-143.85;100.00;70650.75;5101727;28;20015;-77
2022/09/25 01:56:37;;;;;;;4.00;2.05;;;;;;;-143.85;100.00;70650.75;5106054;28;20026;-82
2022/09/25 01:59:14;;;;;;;2.35;1.60;;;;;;;-143.85;100.00;70650.75;5108668;28;20394;-76
2022/09/25 02:01:43;;;;;;;2.00;1.55;;;;;;;-143.85;100.00;70650.75;5097212;28;20463;-75
2022/09/25 02:04:43;;;;;;;2.75;1.88;;;;;;;-143.85;100.00;70650.75;5106070;28;20429;-77
2022/09/25 02:07:15;;;;;;;2.15;1.73;;;;;;;-143.85;100.00;70650.75;5106662;28;20038;-78
2022/09/25 02:09:51;;;;;;;3.20;2.35;;;;;;;-143.85;100.00;70650.75;5102545;28;20035;-81
2022/09/25 02:12:33;;;;;;;2.53;2.22;;;;;;;-143.85;100.00;70650.75;5098506;28;20120;-76
2022/09/25 02:15:12;;;;;;;2.53;1.42;;;;;;;-143.85;100.00;70650.75;5105023;28;20026;-76
2022/09/25 02:20:35;;;;;;;2.80;1.88;;;;;;;-143.85;100.00;70650.75;5105206;28;20145;-79
2022/09/25 02:23:22;;;;;;;2.17;1.42;;;;;;;-143.85;100.00;70650.75;5097069;28;20070;-78
2022/09/25 02:25:56;;;;;;;1.45;1.30;;;;;;;-143.85;100.00;70650.75;5108303;28;20043;-76
2022/09/25 02:28:22;;;;;;;3.88;2.05;;;;;;;-143.85;100.00;70650.75;5105356;28;20084;-74
2022/09/25 02:30:50;;;;;;;2.72;1.83;;;;;;;-143.85;100.00;70650.75;5099596;28;20123;-75
2022/09/25 02:33:15;;;;;;;;;;;;;;;-143.85;100.00;70650.75;5101180;28;20027;-80
2022/09/25 02:35:41;;;;;;;1.63;1.52;;;;;;;-143.85;100.00;70650.75;5113721;28;19903;-78
2022/09/25 02:38:07;;;;;;;9.07;1.67;;;;;;;-143.85;100.00;70650.75;5103468;28;20035;-77
2022/09/25 02:40:56;;;;;;;2.88;1.70;;;;;;;-143.85;100.00;70650.75;5100014;28;20406;-77
2022/09/25 02:43:45;;;;;;;2.88;1.73;;;;;;;-143.85;100.00;70650.75;5112680;28;20031;-76
2022/09/25 02:46:34;;;;;;;2.58;1.98;;;;;;;-143.85;100.00;70650.75;5101554;28;20026;-76
2022/09/25 02:49:39;;;;;;;2.83;1.90;;;;;;;-143.85;100.00;70650.75;5104361;28;20027;-78
2022/09/25 02:52:21;;;;;;;2.70;1.85;;;;;;;-143.85;100.00;70650.75;5068562;28;20451;-76
2022/09/25 02:55:23;;;;;;;3.25;1.48;;;;;;;-143.85;100.00;70650.75;5122167;27;20027;-77
2022/09/25 02:57:58;;;;;;;2.25;1.65;;;;;;;-143.85;100.00;70650.75;5111235;28;20015;-77
2022/09/25 03:00:23;;;;;;;1.52;1.13;;;;;;;-143.85;100.00;70650.75;5105759;28;20475;-77
2022/09/25 03:02:55;;;;;;;2.92;2.22;;;;;;;-143.85;100.00;70650.75;5101201;28;20076;-77
2022/09/25 03:05:23;;;;;;;1.60;1.50;;;;;;;-143.85;100.00;70650.75;5113428;28;20024;-76
2022/09/25 03:10:35;;;;;;;2.33;1.95;;;;;;;-143.85;100.00;70650.75;5098611;28;20042;-79
2022/09/25 03:13:33;;;;;;;1.58;1.48;;;;;;;-143.85;100.00;70650.75;5100732;28;20024;-78
2022/09/25 03:16:19;;;;;;;4.93;1.65;;;;;;;-143.85;100.00;70650.75;5050784;28;20502;-77
2022/09/25 03:18:45;;;;;;;6.50;1.98;;;;;;;-143.85;100.00;70650.75;5112148;28;20034;-77
2022/09/25 03:21:11;;;;;;;2.15;1.60;;;;;;;-143.85;100.00;70650.75;5111416;28;20516;-76
2022/09/25 03:23:36;;;;;;;3.83;2.05;;;;;;;-143.85;100.00;70650.75;5098076;28;20024;-78
2022/09/25 03:26:03;;;;;;;3.25;1.98;;;;;;;-143.85;100.00;70650.75;5105079;28;20539;-74
2022/09/25 03:28:29;;;;;;;3.28;2.00;;;;;;;-143.85;100.00;70650.75;5095758;28;20364;-79
2022/09/25 03:31:00;;;;;;;6.63;3.15;;;;;;;-143.85;100.00;70650.75;5106288;28;20467;-80
2022/09/25 03:33:28;;;;;;;8.18;2.40;;;;;;;-143.85;100.00;70650.75;5106896;28;20027;-81
2022/09/25 03:36:29;;;;;;;;;;;;;;;-143.85;100.00;70650.75;5101605;28;20394;-81
2022/09/25 03:38:59;;;;;;;9.55;3.65;;;;;;;-143.85;100.00;70650.75;5042549;28;19913;-73
2022/09/25 03:41:27;;;;;;;9.82;4.13;;;;;;;-143.85;100.00;70650.75;5086328;28;20089;-75
2022/09/25 03:43:54;;;;;;;19.58;4.57;;;;;;;-143.85;100.00;70650.75;5093367;28;20020;-76
2022/09/25 03:46:31;;;;;;;3.30;2.33;;;;;;;-143.85;100.00;70650.75;5104916;28;20027;-80
2022/09/25 03:48:57;;;;;;;5.20;2.60;;;;;;;-143.85;100.00;70650.75;5099183;28;20012;-74
2022/09/25 03:51:24;;;;;;;2.38;2.20;;;;;;;-143.85;100.00;70650.75;5101741;28;20028;-77
2022/09/25 03:53:50;;;;;;;4.77;3.17;;;;;;;-143.85;100.00;70650.75;5101663;28;20098;-80
2022/09/25 03:56:22;;;;;;;5.85;3.33;;;;;;;-143.85;100.00;70650.75;5112918;28;20015;-79
2022/09/25 03:58:48;;;;;;;2.28;2.05;;;;;;;-143.85;100.00;70650.75;5110482;28;20383;-79
2022/09/25 04:01:15;;;;;;;4.10;1.48;;;;;;;-143.85;100.00;70650.75;5096848;28;20573;-77
2022/09/25 04:03:44;;;;;;;2.83;2.63;;;;;;;-143.85;100.00;70650.75;5098966;28;20027;-76
2022/09/25 04:06:09;;;;;;;2.83;1.52;;;;;;;-143.85;100.00;70650.75;5100281;28;20031;-80
2022/09/25 04:08:36;;;;;;;3.70;1.40;;;;;;;-143.85;100.00;70650.75;5101037;28;20387;-78
2022/09/25 04:11:02;;;;;;;2.85;1.85;;;;;;;-143.85;100.00;70650.75;5098575;28;20035;-80
2022/09/25 04:13:30;;;;;;;6.78;1.25;;;;;;;-143.85;100.00;70650.75;5093185;28;20489;-77
2022/09/25 04:15:57;;;;;;;2.08;1.85;;;;;;;-143.85;100.00;70650.75;5098641;28;20031;-79
2022/09/25 04:18:24;;;;;;;1.92;1.60;;;;;;;-143.85;100.00;70650.75;5111615;28;20055;-79
2022/09/25 04:20:50;;;;;;;3.35;1.65;;;;;;;-143.85;100.00;70650.75;5101213;28;20046;-77
2022/09/25 04:23:16;;;;;;;4.30;1.88;;;;;;;-143.85;100.00;70650.75;5095477;28;20022;-80
2022/09/25 04:25:42;;;;;;;1.95;1.65;;;;;;;-143.85;100.00;70650.75;5104451;28;20054;-77
2022/09/25 04:28:09;;;;;;;2.05;1.77;;;;;;;-143.85;100.00;70650.75;5095427;28;20173;-77
2022/09/25 04:30:34;;;;;;;1.42;1.23;;;;;;;-143.85;100.00;70650.75;5099417;28;20083;-78
2022/09/25 04:35:44;;;;;;;1.98;1.63;;;;;;;-143.85;100.00;70650.75;5102735;28;20112;-77
2022/09/25 04:38:09;;;;;;;11.85;1.70;;;;;;;-143.85;100.00;70650.75;5105357;28;20450;-77
2022/09/25 04:40:36;;;;;;;2.90;1.60;;;;;;;-143.85;100.00;70650.75;5111779;28;20031;-77
2022/09/25 04:43:04;;;;;;;2.47;1.60;;;;;;;-143.85;100.00;70650.75;5103840;28;20046;-76
2022/09/25 04:45:29;;;;;;;;;;;;;;;-143.85;100.00;70650.75;5108760;28;20026;-77
2022/09/25 04:47:57;;;;;;;1.38;1.27;;;;;;;-143.85;100.00;70650.75;5101716;28;19907;-77
2022/09/25 04:50:24;;;;;;;1.35;1.17;;;;;;;-143.85;100.00;70650.75;5100460;28;20114;-77
2022/09/25 04:52:50;;;;;;;1.80;1.38;;;;;;;-143.85;100.00;70650.75;5102280;28;20019;-76
2022/09/25 04:55:23;;;;;;;2.42;1.65;;;;;;;-143.85;100.00;70650.75;5098568;28;20024;-77
2022/09/25 04:57:51;;;;;;;5.05;2.72;;;;;;;-143.85;100.00;70650.75;5105815;28;20027;-76
2022/09/25 05:00:18;;;;;;;2.08;1.80;;;;;;;-143.85;100.00;70650.75;5091473;28;20016;-79
2022/09/25 05:02:46;;;;;;;2.90;1.73;;;;;;;-143.85;100.00;70650.75;5111109;28;20094;-77
2022/09/25 05:05:13;;;;;;;3.85;1.92;;;;;;;-143.85;100.00;70650.75;5121638;27;20434;-74
2022/09/25 05:07:38;;;;;;;3.83;2.47;;;;;;;-143.85;100.00;70650.75;5096949;28;20023;-76
2022/09/25 05:10:07;;;;;;;3.28;2.35;;;;;;;-143.85;100.00;70650.75;5104464;28;20027;-77
2022/09/25 05:12:33;;;;;;;4.65;1.95;;;;;;;-143.85;100.00;70650.75;5094948;28;20035;-77
2022/09/25 05:14:58;;;;;;;2.65;2.20;;;;;;;-143.85;100.00;70650.75;5094126;28;20024;-76
2022/09/25 05:17:24;;;;;;;3.85;2.13;;;;;;;-143.85;100.00;70650.75;5102585;28;20034;-75
2022/09/25 05:19:50;;;;;;;5.38;3.30;;;;;;;-143.85;100.00;70650.75;5101988;28;20402;-77
2022/09/25 05:22:15;;;;;;;6.15;2.58;;;;;;;-143.85;100.00;70650.75;5109777;28;20471;-81
2022/09/25 05:24:40;;;;;;;3.22;2.65;;;;;;;-143.85;100.00;70650.75;5101813;28;20028;-77
2022/09/25 05:27:07;;;;;;;4.65;2.22;;;;;;;-143.85;100.00;70650.75;5105824;28;20509;-76
2022/09/25 05:29:33;;;;;;;5.22;2.42;;;;;;;-143.85;100.00;70650.75;5100047;28;20111;-79
2022/09/25 05:31:59;;;;;;;5.38;1.75;;;;;;;-143.85;100.00;70650.75;5102340;28;20035;-78
2022/09/25 05:34:25;;;;;;;3.13;1.83;;;;;;;-143.85;100.00;70650.75;5107893;28;20020;-79
2022/09/25 05:36:51;;;;;;;7.00;2.03;;;;;;;-143.85;100.00;70650.75;5108833;28;20413;-76
2022/09/25 05:39:16;;;;;;;1.42;1.23;;;;;;;-143.85;100.00;70650.75;5098086;28;20012;-76
2022/09/25 05:41:42;;;;;;;2.03;1.83;;;;;;;-143.85;100.00;70650.75;5099184;28;20410;-78
2022/09/25 05:44:08;;;;;;;2.00;1.17;;;;;;;-143.85;100.00;70650.75;5098502;28;20030;-77
2022/09/25 05:46:38;;;;;;;1.30;1.10;;;;;;;-143.85;100.00;70650.75;5099562;28;20051;-77
2022/09/25 05:49:04;;;;;;;2.88;1.40;;;;;;;-143.85;100.00;70650.75;5101670;28;20471;-76
2022/09/25 05:51:31;;;;;;;1.23;1.10;;;;;;;-143.85;100.00;70650.75;5100050;28;20043;-80
2022/09/25 05:53:56;;;;;;;7.78;1.55;;;;;;;-143.85;100.00;70650.75;5103311;28;20035;-77
2022/09/25 05:56:23;;;;;;;1.95;1.33;;;;;;;-143.85;100.00;70650.75;5102145;28;20365;-78
2022/09/25 05:58:50;;;;;;;2.78;1.70;;;;;;;-143.85;100.00;70650.75;5096350;28;20130;-77
2022/09/25 06:01:16;;;;;;;2.22;1.42;;;;;;;-143.85;100.00;70650.75;5097320;28;20042;-78
2022/09/25 06:03:42;;;;;;;3.03;1.77;;;;;;;-143.85;100.00;70650.75;5106546;28;20391;-73
2022/09/25 06:06:08;;;;;;;4.45;1.92;;;;;;;-143.85;100.00;70650.75;5101180;28;20065;-79
2022/09/25 06:08:36;;;;;;;2.65;1.83;;;;;;;-143.85;100.00;70650.75;5102505;28;20028;-77
2022/09/25 06:11:02;;;;;;;3.78;2.40;;;;;;;-143.85;100.00;70650.75;5101620;28;20008;-80
2022/09/25 06:13:30;;;;;;;2.60;1.50;;;;;;;-143.85;100.00;70650.75;5101754;28;20510;-76
2022/09/25 06:15:56;;;;;;;2.15;1.25;;;;;;;-143.85;100.00;70650.75;5096200;28;20020;-76
2022/09/25 06:18:23;;;;;;;2.92;1.30;;;;;;;-143.85;100.00;70650.75;5098706;28;20024;-76
2022/09/25 06:20:50;;;;;;;5.20;1.57;;;;;;;-143.85;100.00;70650.75;5110177;28;20431;-79
2022/09/25 06:23:16;;;;;;;1.45;1.35;;;;;;;-143.85;100.00;70650.75;5105275;28;20269;-78
2022/09/25 06:25:42;;;;;;;2.60;1.40;;;;;;;-143.85;100.00;70650.75;5103225;28;20462;-77
2022/09/25 06:28:11;;;;;;;2.80;1.35;;;;;;;-143.85;100.00;70650.75;5101185;28;20055;-73
2022/09/25 06:30:37;;;;;;;2.47;1.75;;;;;;;-143.85;100.00;70650.75;5109383;28;20023;-77
2022/09/25 06:33:06;;;;;;;3.72;1.58;;;;;;;-143.85;100.00;70650.75;5106113;28;20448;-74
2022/09/25 06:35:33;;;;;;;4.30;2.22;;;;;;;-143.85;100.00;70650.75;5102090;28;20028;-75
2022/09/25 06:38:00;;;;;;;2.38;1.45;;;;;;;-143.85;100.00;70650.75;5104626;28;20446;-74
2022/09/25 06:40:27;;;;;;;3.70;1.30;;;;;;;-143.85;100.00;70650.75;5101706;28;20459;-73
2022/09/25 06:43:01;;;;;;;4.05;1.50;;;;;;;-143.85;100.00;70650.75;5096734;28;20140;-73
2022/09/25 06:45:28;;;;;;;2.72;1.50;;;;;;;-143.85;100.00;70650.75;5102384;28;20471;-73
2022/09/25 06:47:59;;;;;;;1.65;1.20;;;;;;;-143.85;100.00;70650.75;5107576;28;20390;-74
2022/09/25 06:50:30;;;;;;;1.58;1.30;;;;;;;-143.85;100.00;70650.75;5106562;28;20095;-73
2022/09/25 06:52:59;;;;;;;2.90;1.55;;;;;;;-143.85;100.00;70650.75;5111538;27;20024;-74
2022/09/25 06:55:26;;;;;;;1.73;1.13;;;;;;;-143.85;100.00;70650.75;5110382;28;20466;-75
2022/09/25 06:57:52;;;;;;;1.35;1.13;;;;;;;-143.85;100.00;70650.75;5101203;28;20080;-76
2022/09/25 07:00:17;;;;;;;2.42;1.42;;;;;;;-143.85;100.00;70650.75;5098942;28;20413;-75
2022/09/25 07:05:26;;;;;;;2.05;1.08;;;;;;;-143.85;100.00;70650.75;5105400;28;20034;-73
2022/09/25 07:07:54;;;;;;;3.72;1.27;;;;;;;-143.85;100.00;70650.75;5107814;28;20398;-75
2022/09/25 07:10:20;;;;;;;;;;;;;;;-143.85;100.00;70650.75;5108031;28;20032;-74
2022/09/25 07:12:46;;;;;;;1.95;1.27;;;;;;;-143.85;100.00;70650.75;5107515;28;19908;-73
2022/09/25 07:15:12;;;;;;;1.63;1.20;;;;;;;-143.85;100.00;70650.75;5110468;28;20089;-73
2022/09/25 07:17:41;;;;;;;2.70;1.17;;;;;;;-143.85;100.00;70650.75;5100693;28;20433;-73
2022/09/25 07:20:09;;;;;;;3.55;1.17;;;;;;;-143.85;100.00;70650.75;5100739;28;20058;-72
2022/09/25 07:22:35;;;;;;;2.47;1.58;;;;;;;-143.85;100.00;70650.75;5107650;28;20080;-74
2022/09/25 07:25:00;;;;;;;1.48;1.20;;;;;;;-143.85;100.00;70650.75;5096234;28;20035;-75
2022/09/25 07:27:25;;;;;;;2.33;1.30;;;;;;;-143.85;100.00;70650.75;5110100;28;20023;-73
2022/09/25 07:29:51;;;;;;;1.48;1.02;;;;;;;-143.85;100.00;70650.75;5103224;28;20553;-76
2022/09/25 07:32:17;;;;;;;2.17;1.10;;;;;;;-143.85;100.00;70650.75;5105870;28;20027;-76
2022/09/25 07:34:42;;;;;;;1.48;1.30;;;;;;;-143.85;100.00;70650.75;5103436;28;20050;-77
2022/09/25 07:37:07;;;;;;;1.23;1.00;;;;;;;-143.85;100.00;70650.75;5095915;28;20455;-77
2022/09/25 07:39:33;;;;;;;1.90;1.10;;;;;;;-143.85;100.00;70650.75;5102624;28;20399;-78
2022/09/25 07:41:58;;;;;;;2.50;1.30;;;;;;;-143.85;100.00;70650.75;5111143;28;20402;-79
2022/09/25 07:44:24;;;;;;;2.30;1.40;;;;;;;-143.85;100.00;70650.75;5108210;28;20138;-77
2022/09/25 07:46:49;;;;;;;2.17;1.48;;;;;;;-143.85;100.00;70650.75;5099181;28;20020;-79
2022/09/25 07:49:15;;;;;;;1.38;1.27;;;;;;;-143.85;100.00;70650.75;5097481;28;20489;-78
2022/09/25 07:51:40;;;;;;;2.42;1.08;;;;;;;-143.85;100.00;70650.75;5103173;28;20394;-77
2022/09/25 07:54:06;;;;;;;1.45;1.17;;;;;;;-143.85;100.00;70650.75;5098679;28;20024;-77
2022/09/25 07:56:33;;;;;;;1.85;1.75;;;;;;;-143.85;100.00;70650.75;5102181;28;20103;-79
2022/09/25 07:58:58;;;;;;;1.48;1.10;;;;;;;-143.85;100.00;70650.75;5098008;28;20031;-77
2022/09/25 08:01:24;;;;;;;3.50;2.25;;;;;;;-143.85;100.00;70650.75;5101787;28;20023;-79
2022/09/25 08:03:50;;;;;;;6.65;1.52;;;;;;;-143.85;100.00;70650.75;5106019;28;20066;-80
2022/09/25 08:06:15;;;;;;;2.90;1.13;;;;;;;-143.85;100.00;70650.75;5106076;28;20019;-76
2022/09/25 08:08:42;;;;;;;2.38;1.40;;;;;;;-143.85;100.00;70650.75;5101285;28;20605;-77
2022/09/25 08:11:13;;;;;;;5.80;1.45;;;;;;;-143.85;100.00;70650.75;5099753;28;20012;-77
2022/09/25 08:13:40;;;;;;;2.53;1.13;;;;;;;-143.85;100.00;70650.75;5103115;28;20051;-78
2022/09/25 08:16:14;;;;;;;1.95;1.23;;;;;;;-143.85;100.00;70650.75;5097647;28;20040;-77
2022/09/25 08:18:41;;;;;;;1.80;1.70;;;;;;;-143.85;100.00;70650.75;5105553;28;20042;-78
2022/09/25 08:21:08;;;;;;;4.80;2.05;;;;;;;-143.85;100.00;70650.75;5109388;28;20077;-78
2022/09/25 08:23:33;;;;;;;2.97;2.17;;;;;;;-143.85;100.00;70650.75;5097167;28;20035;-79
2022/09/25 08:26:00;;;;;;;2.88;1.45;;;;;;;-143.85;100.00;70650.75;5093102;28;20048;-79
2022/09/25 08:28:27;;;;;;;3.13;1.10;;;;;;;-143.85;100.00;70650.75;5096374;28;20028;-79
2022/09/25 08:30:53;;;;;;;2.20;1.90;;;;;;;-143.85;100.00;70650.75;5096903;28;20040;-80
2022/09/25 08:33:19;;;;;;;2.05;1.13;;;;;;;-143.85;100.00;70650.75;5111091;28;20459;-78
2022/09/25 08:35:55;;;;;;;2.72;1.50;;;;;;;-143.85;100.00;70650.75;5096599;28;20028;-78
2022/09/25 08:38:20;;;;;;;2.05;1.85;;;;;;;-143.85;100.00;70650.75;5109756;28;20367;-79
2022/09/25 08:41:02;;;;;;;1.50;1.20;;;;;;;-143.85;100.00;70650.75;5098774;28;20143;-79
2022/09/25 08:43:31;;;;;;;1.45;1.30;;;;;;;-143.85;100.00;70650.75;5094144;28;20035;-78
2022/09/25 08:49:08;;;;;;;2.30;1.13;;;;;;;-143.85;100.00;70650.75;5107594;28;20080;-79
2022/09/25 08:51:41;;;;;;;4.03;1.40;;;;;;;-143.85;100.00;70650.75;5098897;28;20047;-78
2022/09/25 08:54:22;;;;;;;3.35;1.88;;;;;;;-143.85;100.00;70650.75;5103043;28;20106;-78
2022/09/25 08:57:17;;;;;;;2.65;1.13;;;;;;;-143.85;100.00;70650.75;5101834;28;20036;-79
2022/09/25 08:59:48;;;;;;;2.75;1.73;;;;;;;-143.85;100.00;70650.75;5088820;28;20114;-79
2022/09/25 09:02:17;;;;;;;1.83;1.10;;;;;;;-143.85;100.00;70650.75;5117610;27;20089;-77
2022/09/25 09:04:50;;;;;;;1.58;1.48;;;;;;;-143.85;100.00;70650.75;5097392;28;20027;-78
2022/09/25 09:07:39;;;;;;;1.67;1.20;;;;;;;-143.85;100.00;70650.75;5100918;28;20020;-80
2022/09/25 09:10:34;;;;;;;2.53;1.70;;;;;;;-143.85;100.00;70650.75;5101003;28;20012;-79
2022/09/25 09:13:08;;;;;;;1.42;1.10;;;;;;;-143.85;100.00;70650.75;5099573;28;20487;-80
2022/09/25 09:15:39;;;;;;;1.98;1.60;;;;;;;-143.85;100.00;70650.75;5094360;28;20039;-80
2022/09/25 09:18:29;;;;;;;1.88;1.65;;;;;;;-143.85;100.00;70650.75;5103243;28;20028;-80
2022/09/25 09:20:57;;;;;;;1.73;1.60;;;;;;;-143.85;100.00;70650.75;5104555;28;20088;-78
2022/09/25 09:23:30;;;;;;;1.80;1.65;;;;;;;-143.85;100.00;70650.75;5105689;28;20118;-78
2022/09/25 09:26:15;;;;;;;3.25;1.55;;;;;;;-143.85;100.00;70650.75;5100698;28;20048;-80
2022/09/25 09:28:41;;;;;;;2.25;1.60;;;;;;;-143.85;100.00;70650.75;5098335;28;20032;-78
2022/09/25 09:31:20;;;;;;;1.15;1.00;;;;;;;-143.85;100.00;70650.75;5092821;28;20054;-78
2022/09/25 09:33:58;;;;;;;1.42;0.95;;;;;;;-143.85;100.00;70650.75;5099324;28;20085;-78
2022/09/25 09:36:29;;;;;;;4.07;1.83;;;;;;;-143.85;100.00;70650.75;5094179;28;20059;-78
2022/09/25 09:39:02;;;;;;;1.27;1.17;;;;;;;-143.85;100.00;70650.75;5109362;28;20032;-75
2022/09/25 09:41:27;;;;;;;1.30;1.20;;;;;;;-143.85;100.00;70650.75;5107375;28;20031;-79
2022/09/25 09:44:11;;;;;;;3.88;1.10;;;;;;;-143.85;100.00;70650.75;5103492;28;20477;-80
2022/09/25 09:46:57;;;;;;;2.22;1.48;;;;;;;-143.85;100.00;70650.75;5113109;28;20031;-79
2022/09/25 09:49:39;;;;;;;1.57;1.10;;;;;;;-143.85;100.00;70650.75;5098134;28;20020;-78
2022/09/25 09:52:17;;;;;;;3.85;1.20;;;;;;;-143.85;100.00;70650.75;5104964;28;20026;-73
2022/09/25 09:55:14;;;;;;;1.40;1.27;;;;;;;-143.85;100.00;70650.75;5112290;28;20027;-79
2022/09/25 09:57:55;;;;;;;1.77;1.40;;;;;;;-143.85;100.00;70650.75;5099114;28;20023;-75
2022/09/25 10:00:22;;;;;;;2.88;1.10;;;;;;;-143.85;100.00;70650.75;5109697;28;20023;-73
2022/09/25 10:03:10;;;;;;;2.83;1.42;;;;;;;-143.85;100.00;70650.75;5108315;28;20080;-76
2022/09/25 10:05:38;;;;;;;3.10;1.27;;;;;;;-143.85;100.00;70650.75;5111479;28;20023;-80
2022/09/25 10:08:03;;;;;;;;;;;;;;;-143.85;100.00;70650.75;5111129;28;20027;-79
2022/09/25 10:10:43;;;;;;;4.50;1.60;;;;;;;-143.85;100.00;70650.75;5112694;28;19980;-78
2022/09/25 10:13:19;;;;;;;1.35;0.98;;;;;;;-143.85;100.00;70650.75;5107036;28;20165;-79
2022/09/25 10:16:02;;;;;;;1.33;1.15;;;;;;;-143.85;100.00;70650.75;5108965;28;20051;-77
2022/09/25 10:18:34;;;;;;;1.30;1.20;;;;;;;-143.85;100.00;70650.75;5106344;28;20072;-79
2022/09/25 10:21:18;;;;;;;1.58;1.20;;;;;;;-143.85;100.00;70650.75;5108053;28;20073;-77
2022/09/25 10:23:52;;;;;;;4.53;1.27;;;;;;;-143.85;100.00;70650.75;5109181;28;20027;-76
2022/09/25 10:26:38;;;;;;;1.30;1.05;;;;;;;-143.85;100.00;70650.75;5111846;28;20045;-78
2022/09/25 10:29:22;;;;;;;1.48;1.38;;;;;;;-143.85;100.00;70650.75;5105627;28;20464;-76
2022/09/25 10:31:57;;;;;;;2.38;1.13;;;;;;;-143.85;100.00;70650.75;5124106;27;20084;-78
2022/09/25 10:34:23;;;;;;;1.50;1.00;;;;;;;-143.85;100.00;70650.75;5108660;28;20077;-78
2022/09/25 10:36:51;;;;;;;2.88;1.33;;;;;;;-143.85;100.00;70650.75;5099734;28;20462;-77
2022/09/25 10:39:22;;;;;;;;;;;;;;;-143.85;100.00;70650.75;5108352;28;20055;-76
2022/09/25 10:41:48;;;;;;;1.80;1.10;;;;;;;-143.85;100.00;70650.75;5107016;28;19926;-76
2022/09/25 10:44:27;;;;;;;1.50;1.20;;;;;;;-143.85;100.00;70650.75;5106120;28;20020;-79
2022/09/25 10:52:48;;;;;;;1.20;0.98;;;;;;;-143.85;100.00;70650.75;5106928;28;20084;-77
2022/09/25 10:55:24;;;;;;;1.35;1.25;;;;;;;-143.85;100.00;70650.75;5107412;28;20040;-74
2022/09/25 10:58:04;;;;;;;1.02;0.93;;;;;;;-143.85;100.00;70650.75;5101844;28;20088;-76
2022/09/25 11:00:32;;;;;;;2.50;1.05;;;;;;;-143.85;100.00;70650.75;5110974;28;20043;-76
2022/09/25 11:03:00;;;;;;;;;;;;;;;-143.85;100.00;70650.75;5107956;28;20050;-77
2022/09/25 11:05:30;;;;;;;1.30;1.00;;;;;;;-143.85;100.00;70650.75;5112238;28;20290;-78
2022/09/25 11:08:03;;;;;;;1.35;1.10;;;;;;;-143.85;100.00;70650.75;5107803;28;20028;-76
2022/09/25 11:10:52;;;;;;;1.38;1.27;;;;;;;-143.85;100.00;70650.75;5102729;28;20501;-74
2022/09/25 11:13:27;;;;;;;1.80;1.25;;;;;;;-143.85;100.00;70650.75;5124732;27;20043;-78
2022/09/25 11:15:59;;;;;;;3.45;1.70;;;;;;;-143.85;100.00;70650.75;5104574;28;20044;-75
2022/09/25 11:18:46;;;;;;;2.22;1.40;;;;;;;-143.85;100.00;70650.75;5102425;28;20027;-77
2022/09/25 11:21:31;;;;;;;1.40;1.30;;;;;;;-143.85;100.00;70650.75;5102540;28;20132;-76
2022/09/25 11:24:33;;;;;;;0.98;0.85;;;;;;;-143.85;100.00;70650.75;5107366;28;20022;-76
2022/09/25 11:27:16;;;;;;;1.08;0.77;;;;;;;-143.85;100.00;70650.75;5097354;28;20040;-77
2022/09/25 11:29:53;;;;;;;1.80;1.25;;;;;;;-143.85;100.00;70650.75;5109180;28;20495;-76
2022/09/25 11:32:39;;;;;;;1.10;1.05;;;;;;;-143.85;100.00;70650.75;5098809;28;20026;-76
2022/09/25 11:35:23;;;;;;;1.58;1.08;;;;;;;-143.85;100.00;70650.75;5105554;28;20089;-77
2022/09/25 11:41:26;;;;;;;5.63;1.63;;;;;;;-143.85;100.00;70650.75;5096334;28;20135;-79
2022/09/25 11:44:27;;;;;;;2.88;1.63;;;;;;;-143.85;100.00;70650.75;5103884;28;20050;-78
2022/09/25 11:47:04;;;;;;;2.15;1.52;;;;;;;-143.85;100.00;70650.75;5102184;28;20505;-78
2022/09/25 11:49:36;;;;;;;2.45;1.83;;;;;;;-143.85;100.00;70650.75;5103690;28;20036;-77
2022/09/25 11:52:28;;;;;;;3.25;2.00;;;;;;;-143.85;100.00;70650.75;5109778;28;20023;-78
2022/09/25 11:55:08;;;;;;;4.45;2.13;;;;;;;-143.85;100.00;70650.75;5107191;28;20046;-78
2022/09/25 11:57:49;;;;;;;1.70;1.60;;;;;;;-143.85;100.00;70650.75;5108674;28;20453;-76